New Centerville, Idaho
Current Conditions -  °F | °C
As of 7:53 PM on Saturday 24 Jan 2015 (Local Time) from KBOI Reporting Station
Broken Clouds Broken Clouds  
Wind Chill: 37°   Ceiling: 4000
Heat Index: 37°   Visibility: 9mi
Dew Point: 32°   Wind: 0mph
Humidity: 82%   Direction: NA
Pressure: 30.46"   Gusts: NA
Location:  43.8008°N, 115.834°W
Report Text: KBOI 250253Z 00000KT 9SM BKN040 03/00 A3046 RMK AO2 SLP334 T00280000 53001
Loading
Personal Weather Stations






























Interactive Weather Map New forecast layout! Learn more

10-Day Weather Forecast

Advertisements
Track Severe Weather on mobile